Time;durP1;ratioP1;P1;durP2;ratioP2;P2;SDS_P1;SDS_P2;PMS_P1;PMS_P2;Temp;Humidity;BMP_temperature;BMP_pressure;BME280_temperature;BME280_humidity;BME280_pressure;Samples;Min_cycle;Max_cycle;Signal;HPM_P1;HPM_P2
2022/05/17 00:02:39;;;;;;;25.35;16.58;;;;;;;15.13;100.00;100938.59;6248403;28;20041;-88
2022/05/17 00:05:43;;;;;;;24.88;16.98;;;;;;;15.22;100.00;100942.13;6239335;28;20415;-88
2022/05/17 00:08:45;;;;;;;27.98;17.13;;;;;;;15.18;100.00;100938.97;6231501;28;20300;-88
2022/05/17 00:11:48;;;;;;;24.17;17.00;;;;;;;15.13;100.00;100942.94;6237555;28;20757;-88
2022/05/17 00:14:50;;;;;;;22.77;16.67;;;;;;;15.17;100.00;100946.94;6242082;28;20037;-89
2022/05/17 00:17:54;;;;;;;24.90;16.40;;;;;;;15.19;100.00;100953.66;6252629;28;20037;-89
2022/05/17 00:20:56;;;;;;;25.80;18.13;;;;;;;15.18;100.00;100951.19;6257303;28;20044;-88
2022/05/17 00:23:59;;;;;;;26.10;16.70;;;;;;;15.17;100.00;100942.53;6247984;28;20569;-88
2022/05/17 00:27:01;;;;;;;24.08;16.73;;;;;;;15.16;100.00;100948.72;6239864;28;20048;-88
2022/05/17 00:30:06;;;;;;;26.13;17.73;;;;;;;15.26;100.00;100946.91;6261226;28;20110;-89
2022/05/17 00:33:09;;;;;;;25.38;17.60;;;;;;;15.24;100.00;100943.63;6245809;28;20044;-89
2022/05/17 00:36:11;;;;;;;27.35;17.60;;;;;;;15.24;100.00;100943.63;6262855;28;20437;-89
2022/05/17 00:39:12;;;;;;;27.02;17.63;;;;;;;15.21;100.00;100951.72;6245936;28;20041;-89
2022/05/17 00:42:15;;;;;;;29.45;18.13;;;;;;;15.20;100.00;100944.84;6228317;28;20045;-89
2022/05/17 00:45:20;;;;;;;27.73;17.58;;;;;;;15.23;100.00;100941.19;6248542;28;20065;-89
2022/05/17 00:48:23;;;;;;;24.95;17.52;;;;;;;15.22;100.00;100948.16;6248823;28;20497;-89
2022/05/17 00:51:29;;;;;;;29.60;18.40;;;;;;;15.20;100.00;100939.63;6242563;28;20037;-89
2022/05/17 00:54:31;;;;;;;28.52;18.42;;;;;;;15.14;100.00;100935.00;6258011;28;20404;-89
2022/05/17 00:57:44;;;;;;;30.40;19.83;;;;;;;15.12;100.00;100942.13;6257858;28;20056;-90
2022/05/17 01:01:02;;;;;;;29.77;18.92;;;;;;;15.05;100.00;100935.84;6250360;28;20078;-89
2022/05/17 01:04:17;;;;;;;30.15;19.30;;;;;;;15.16;100.00;100942.69;6249636;28;20041;-89
2022/05/17 01:07:24;;;;;;;27.45;19.05;;;;;;;15.06;100.00;100938.31;6270340;28;20053;-89
2022/05/17 01:10:29;;;;;;;31.40;20.38;;;;;;;15.02;100.00;100944.75;6258165;28;20037;-89
2022/05/17 01:16:51;;;;;;;28.48;19.33;;;;;;;14.86;100.00;100932.31;6251931;28;20411;-89
2022/05/17 01:19:54;;;;;;;31.17;20.30;;;;;;;14.83;100.00;100937.81;6238998;28;20989;-89
2022/05/17 01:22:56;;;;;;;32.40;19.48;;;;;;;14.83;100.00;100940.41;6256991;28;20123;-88
2022/05/17 01:25:58;;;;;;;28.35;19.00;;;;;;;14.82;100.00;100932.72;6242028;28;20048;-89
2022/05/17 01:29:01;;;;;;;32.00;20.00;;;;;;;14.87;100.00;100925.31;6229239;28;20074;-89
2022/05/17 01:32:04;;;;;;;28.73;19.17;;;;;;;14.88;100.00;100926.13;6261026;28;20105;-89
2022/05/17 01:35:08;;;;;;;35.03;20.17;;;;;;;14.93;100.00;100921.31;6234013;28;20595;-88
2022/05/17 01:38:10;;;;;;;30.40;19.50;;;;;;;14.93;100.00;100921.31;6227838;28;20756;-89
2022/05/17 01:41:12;;;;;;;29.02;19.20;;;;;;;14.88;100.00;100924.38;6241904;28;20041;-88
2022/05/17 01:44:14;;;;;;;28.90;18.50;;;;;;;14.84;100.00;100915.16;6260470;28;20041;-88
2022/05/17 01:47:16;;;;;;;28.58;17.98;;;;;;;14.87;100.00;100920.09;6232451;28;20060;-89
2022/05/17 01:50:18;;;;;;;28.10;18.23;;;;;;;14.88;100.00;100913.94;6250328;28;20499;-88
2022/05/17 01:53:21;;;;;;;25.30;17.33;;;;;;;14.86;100.00;100905.44;6251722;28;20391;-90
2022/05/17 01:56:23;;;;;;;24.10;15.95;;;;;;;14.82;100.00;100910.06;6251032;28;20048;-89
2022/05/17 01:59:25;;;;;;;24.67;16.52;;;;;;;14.77;100.00;100911.47;6240594;28;20433;-89
2022/05/17 02:02:27;;;;;;;29.27;16.63;;;;;;;14.76;100.00;100910.66;6258627;28;20041;-89
2022/05/17 02:05:28;;;;;;;25.25;15.90;;;;;;;14.71;100.00;100912.84;6257924;28;20029;-89
2022/05/17 02:08:31;;;;;;;25.02;16.05;;;;;;;14.71;100.00;100906.78;6238451;28;20219;-89
2022/05/17 02:11:33;;;;;;;23.27;16.13;;;;;;;14.72;100.00;100911.06;6247684;28;20037;-89
2022/05/17 02:14:35;;;;;;;21.48;15.52;;;;;;;14.75;100.00;100916.81;6232999;28;20529;-89
2022/05/17 02:17:38;;;;;;;22.83;15.05;;;;;;;14.71;100.00;100909.41;6240885;28;20665;-89
2022/05/17 02:20:40;;;;;;;25.75;14.63;;;;;;;14.66;100.00;100909.84;6240766;28;20045;-89
2022/05/17 02:23:41;;;;;;;25.65;13.38;;;;;;;14.53;100.00;100902.28;6250033;28;20041;-89
2022/05/17 02:26:44;;;;;;;19.67;12.63;;;;;;;14.50;100.00;100899.09;6255338;28;20037;-89
2022/05/17 02:29:46;;;;;;;20.45;12.32;;;;;;;14.41;100.00;100904.19;6258128;28;20044;-88
2022/05/17 02:32:49;;;;;;;16.83;11.25;;;;;;;14.43;100.00;100910.09;6240059;28;20037;-89
2022/05/17 02:35:51;;;;;;;20.10;12.18;;;;;;;14.39;100.00;100903.50;6247326;28;20163;-89
2022/05/17 02:38:52;;;;;;;16.55;11.60;;;;;;;14.44;100.00;100908.31;6253986;28;20048;-88
2022/05/17 02:41:55;;;;;;;21.40;11.43;;;;;;;14.49;100.00;100913.91;6248802;28;20040;-89
2022/05/17 02:44:56;;;;;;;17.63;10.13;;;;;;;14.45;100.00;100912.53;6257870;28;20401;-89
2022/05/17 02:47:58;;;;;;;18.75;11.90;;;;;;;14.42;100.00;100910.22;6240924;28;20101;-89
2022/05/17 02:51:12;;;;;;;19.05;10.68;;;;;;;14.43;100.00;100911.84;6243162;28;20054;-89
2022/05/17 02:54:15;;;;;;;17.95;10.25;;;;;;;14.33;100.00;100911.84;6259378;28;20056;-90
2022/05/17 02:57:17;;;;;;;19.38;10.13;;;;;;;14.38;100.00;100914.03;6240019;28;20582;-89
2022/05/17 03:00:19;;;;;;;17.95;9.90;;;;;;;14.33;100.00;100911.84;6224319;28;20053;-88
2022/05/17 03:03:21;;;;;;;16.90;9.23;;;;;;;14.38;100.00;100927.91;6256882;28;20364;-89
2022/05/17 03:06:29;;;;;;;18.33;9.73;;;;;;;14.37;100.00;100920.22;6231630;28;20422;-89
2022/05/17 03:09:30;;;;;;;13.40;8.90;;;;;;;14.51;100.00;100925.03;6261690;28;20048;-89
2022/05/17 03:12:33;;;;;;;15.93;9.70;;;;;;;14.47;100.00;100928.84;6242909;28;20055;-89
2022/05/17 03:15:35;;;;;;;16.45;9.27;;;;;;;14.41;100.00;100934.63;6254389;28;20604;-89
2022/05/17 03:18:44;;;;;;;12.85;8.85;;;;;;;14.42;100.00;100938.88;6257569;28;20119;-89
2022/05/17 03:21:48;;;;;;;15.15;8.82;;;;;;;14.37;100.00;100935.84;6242395;28;20406;-90
2022/05/17 03:24:51;;;;;;;15.80;9.55;;;;;;;14.36;100.00;100944.59;6244615;28;20098;-89
2022/05/17 03:28:13;;;;;;;18.10;8.48;;;;;;;14.42;100.00;100957.91;6253326;28;20045;-90
2022/05/17 03:31:15;;;;;;;14.65;8.88;;;;;;;14.45;100.00;100954.22;6243284;28;20051;-90
2022/05/17 03:34:19;;;;;;;19.42;9.93;;;;;;;14.49;100.00;100957.38;6262662;28;20473;-90
2022/05/17 03:37:21;;;;;;;17.23;10.20;;;;;;;14.53;100.00;100959.59;6238737;28;20096;-90
2022/05/17 03:40:22;;;;;;;18.30;9.50;;;;;;;14.58;100.00;100962.63;6248192;28;20129;-90
2022/05/17 03:43:27;;;;;;;18.40;8.77;;;;;;;14.60;100.00;100965.91;6260174;28;20029;-90
2022/05/17 03:46:29;;;;;;;15.13;8.93;;;;;;;14.64;100.00;100964.69;6255095;28;20056;-90
2022/05/17 03:49:31;;;;;;;18.63;8.82;;;;;;;14.73;100.00;100960.44;6247328;28;20029;-91
2022/05/17 03:52:33;;;;;;;14.90;8.25;;;;;;;14.79;100.00;100965.09;6263391;28;20478;-91
2022/05/17 03:55:35;;;;;;;18.70;10.18;;;;;;;14.82;100.00;100974.41;6255712;28;20053;-91
2022/05/17 03:58:37;;;;;;;20.45;9.15;;;;;;;14.86;100.00;100978.41;6227068;28;20053;-91
2022/05/17 04:01:39;;;;;;;17.23;8.75;;;;;;;14.86;100.00;100981.00;6253465;28;20057;-92
2022/05/17 04:04:41;;;;;;;20.25;9.43;;;;;;;14.88;100.00;100966.06;6232384;28;20040;-92
2022/05/17 04:07:43;;;;;;;19.88;9.73;;;;;;;14.89;100.00;100977.31;6247205;28;20047;-91
2022/05/17 04:10:45;;;;;;;15.55;8.80;;;;;;;14.85;100.00;100984.56;6238281;28;20049;-92
2022/05/17 04:13:47;;;;;;;19.98;9.25;;;;;;;14.81;100.00;100978.00;6244609;28;20554;-93
2022/05/17 04:16:49;;;;;;;21.00;8.52;;;;;;;14.84;100.00;100980.31;6229605;28;20513;-92
2022/05/17 04:19:50;;;;;;;14.27;8.15;;;;;;;14.80;100.00;100982.38;6255690;28;20509;-92
2022/05/17 04:22:54;;;;;;;14.77;8.63;;;;;;;14.84;100.00;100982.94;6247315;28;20465;-92
2022/05/17 04:25:56;;;;;;;17.10;8.32;;;;;;;14.88;100.00;100979.09;6240985;28;20045;-93
2022/05/17 04:28:58;;;;;;;18.58;9.00;;;;;;;14.94;100.00;100988.13;6237828;28;20091;-94
2022/05/17 04:32:00;;;;;;;15.68;8.20;;;;;;;14.90;100.00;100984.16;6263635;28;20041;-92
2022/05/17 04:35:03;;;;;;;12.57;8.43;;;;;;;14.80;100.00;100982.38;6243462;28;20144;-93
2022/05/17 04:38:07;;;;;;;14.15;8.27;;;;;;;14.79;100.00;100985.94;6261007;28;20574;-92
2022/05/17 04:41:09;;;;;;;14.13;7.90;;;;;;;14.75;100.00;100987.16;6264558;28;20136;-92
2022/05/17 04:44:11;;;;;;;16.77;8.43;;;;;;;14.68;100.00;100998.28;6240401;28;20045;-92
2022/05/17 04:47:13;;;;;;;15.40;8.38;;;;;;;14.59;100.00;100989.50;6260089;28;20049;-91
2022/05/17 04:50:16;;;;;;;13.18;7.57;;;;;;;14.56;100.00;100987.19;6245921;28;20449;-92
2022/05/17 04:53:19;;;;;;;18.38;7.57;;;;;;;14.50;100.00;100991.09;6260615;28;20052;-92
2022/05/17 04:56:21;;;;;;;13.70;6.88;;;;;;;14.48;100.00;100987.78;6266862;28;20041;-91
2022/05/17 04:59:23;;;;;;;19.02;8.15;;;;;;;14.50;100.00;100995.50;6248316;28;20048;-90
2022/05/17 05:02:25;;;;;;;14.98;7.38;;;;;;;14.51;100.00;100999.72;6264010;28;20474;-91
2022/05/17 05:05:27;;;;;;;11.75;7.03;;;;;;;14.51;100.00;100999.72;6266773;28;20048;-90
2022/05/17 05:08:29;;;;;;;14.63;6.20;;;;;;;14.61;100.00;100998.84;6264207;28;20048;-89
2022/05/17 05:11:32;;;;;;;14.68;7.18;;;;;;;14.69;100.00;101016.38;6262929;28;20576;-90
2022/05/17 05:14:34;;;;;;;14.20;7.25;;;;;;;14.77;100.00;101007.88;6261567;28;20041;-90
2022/05/17 05:17:37;;;;;;;18.27;7.45;;;;;;;14.81;100.00;101020.53;6258944;28;20691;-90
2022/05/17 05:20:40;;;;;;;17.15;6.97;;;;;;;14.99;100.00;101019.84;6270232;28;20048;-90
2022/05/17 05:23:43;;;;;;;15.52;6.85;;;;;;;15.25;100.00;101020.06;6249267;28;20041;-89
2022/05/17 05:26:45;;;;;;;16.77;7.60;;;;;;;15.65;100.00;101032.06;6264369;28;20032;-89
2022/05/17 05:29:47;;;;;;;17.35;7.00;;;;;;;15.81;100.00;101021.06;6255839;28;20047;-88
2022/05/17 05:32:49;;;;;;;10.07;5.88;;;;;;;15.80;100.00;101028.09;6268320;28;20596;-89
2022/05/17 05:35:52;;;;;;;14.60;6.82;;;;;;;15.83;100.00;101027.81;6265632;28;20044;-89
2022/05/17 05:38:55;;;;;;;13.20;6.28;;;;;;;16.09;100.00;101027.13;6249083;28;20036;-87
2022/05/17 05:41:57;;;;;;;15.02;6.45;;;;;;;16.30;100.00;101030.34;6265046;28;20155;-89
2022/05/17 05:44:59;;;;;;;11.27;6.13;;;;;;;16.33;100.00;101027.44;6256852;28;20045;-88
2022/05/17 05:48:02;;;;;;;14.90;6.80;;;;;;;16.27;100.00;101027.19;6249355;28;20045;-88
2022/05/17 05:51:04;;;;;;;13.00;6.05;;;;;;;16.04;100.00;101026.75;6258401;28;20081;-87
2022/05/17 05:54:06;;;;;;;19.75;7.10;;;;;;;15.89;100.00;101024.59;6255560;28;20037;-87
2022/05/17 05:57:08;;;;;;;12.80;6.00;;;;;;;15.97;100.00;101039.56;6265147;28;20037;-88
2022/05/17 06:00:11;;;;;;;14.45;5.90;;;;;;;15.88;100.00;101040.44;6246254;28;20621;-89
2022/05/17 06:03:14;;;;;;;16.15;6.50;;;;;;;15.79;100.00;101036.06;6248671;28;20037;-88
2022/05/17 06:06:16;;;;;;;16.45;6.05;;;;;;;15.81;100.00;101034.94;6250131;28;20044;-88
2022/05/17 06:09:18;;;;;;;14.45;6.38;;;;;;;15.77;100.00;101043.19;6237258;28;20040;-87
2022/05/17 06:12:20;;;;;;;11.98;6.50;;;;;;;15.74;100.00;101041.69;6232033;28;20057;-87
2022/05/17 06:15:22;;;;;;;13.95;6.28;;;;;;;15.75;100.00;101045.13;6240520;28;20045;-86
2022/05/17 06:18:24;;;;;;;12.93;6.28;;;;;;;15.83;100.00;101042.66;6251366;28;20041;-87
2022/05/17 06:21:26;;;;;;;12.63;5.85;;;;;;;15.96;100.00;101043.13;6240164;28;20049;-87
2022/05/17 06:24:29;;;;;;;10.02;5.40;;;;;;;16.14;100.00;101058.88;6252826;28;20041;-88
2022/05/17 06:27:31;;;;;;;12.10;6.07;;;;;;;16.54;100.00;101052.47;6256102;28;20052;-87
2022/05/17 06:30:33;;;;;;;11.57;5.55;;;;;;;17.06;100.00;101046.63;6257461;28;20052;-87
2022/05/17 06:33:35;;;;;;;10.32;5.40;;;;;;;17.52;100.00;101052.53;6245842;28;20084;-86
2022/05/17 06:36:38;;;;;;;12.75;5.20;;;;;;;17.71;100.00;101052.31;6260252;28;20088;-86
2022/05/17 06:39:55;;;;;;;14.38;5.45;;;;;;;17.77;100.00;101059.56;6258062;28;20045;-86
2022/05/17 06:42:57;;;;;;;12.40;5.47;;;;;;;17.88;100.00;101068.97;6230766;28;20033;-86
2022/05/17 06:46:00;;;;;;;14.57;5.53;;;;;;;17.94;100.00;101057.06;6253132;28;20041;-86
2022/05/17 06:49:02;;;;;;;12.13;5.30;;;;;;;18.02;100.00;101057.91;6258652;28;20048;-87
2022/05/17 06:52:07;;;;;;;10.98;4.70;;;;;;;18.01;100.00;101058.91;6231365;28;20526;-88
2022/05/17 06:55:15;;;;;;;10.35;4.88;;;;;;;17.64;100.00;101061.78;6246157;28;20045;-86
2022/05/17 06:58:18;;;;;;;9.73;5.25;;;;;;;17.22;100.00;101058.03;6238955;28;20045;-88
2022/05/17 07:01:20;;;;;;;13.73;5.07;;;;;;;17.01;100.00;101066.19;6238079;28;20502;-87
2022/05/17 07:04:21;;;;;;;11.77;5.68;;;;;;;16.94;100.00;101067.78;6244820;28;20403;-88
2022/05/17 07:07:23;;;;;;;13.73;5.43;;;;;;;16.94;100.00;101065.19;6255386;28;20045;-87
2022/05/17 07:13:45;;;;;;;;;;;;;;;16.90;100.00;101069.06;6243936;28;20360;-87
2022/05/17 07:16:48;;;;;;;24.33;5.65;;;;;;;16.93;100.00;101067.94;6261675;28;19932;-86
2022/05/17 07:19:50;;;;;;;9.45;4.57;;;;;;;17.00;100.00;101069.78;6251992;28;20509;-86
2022/05/17 07:22:51;;;;;;;12.02;4.18;;;;;;;17.16;100.00;101076.13;6252148;28;20033;-86
2022/05/17 07:25:54;;;;;;;8.98;4.10;;;;;;;17.13;100.00;101069.41;6252081;28;20486;-86
2022/05/17 07:28:56;;;;;;;11.43;4.30;;;;;;;17.19;100.00;101071.44;6262255;28;20182;-86
2022/05/17 07:31:58;;;;;;;9.48;4.25;;;;;;;17.17;100.00;101077.78;6264427;28;20041;-86
2022/05/17 07:35:00;;;;;;;10.40;3.88;;;;;;;17.39;100.00;101076.47;6260479;28;20029;-88
2022/05/17 07:38:03;;;;;;;11.77;3.75;;;;;;;17.48;100.00;101075.56;6245635;28;20401;-87
2022/05/17 07:41:06;;;;;;;9.70;3.58;;;;;;;17.37;100.00;101076.66;6246358;28;20091;-86
2022/05/17 07:44:09;;;;;;;9.75;4.00;;;;;;;17.38;100.00;101085.31;6253547;28;20615;-87
2022/05/17 07:47:10;;;;;;;14.18;5.35;;;;;;;17.48;100.00;101078.19;6249019;28;20038;-86
2022/05/17 07:50:14;;;;;;;6.20;3.70;;;;;;;17.42;100.00;101074.38;6230404;28;20497;-87
2022/05/17 07:53:19;;;;;;;9.13;4.68;;;;;;;17.44;100.00;101077.69;6252072;28;20047;-86
2022/05/17 07:56:21;;;;;;;9.07;4.43;;;;;;;17.61;100.00;101073.38;6236359;28;20194;-86
2022/05/17 07:59:26;;;;;;;11.18;3.95;;;;;;;17.74;100.00;101080.81;6248502;28;20036;-86
2022/05/17 08:02:28;;;;;;;9.52;4.38;;;;;;;17.77;100.00;101075.28;6250871;28;20406;-86
2022/05/17 08:06:35;;;;;;;10.15;3.67;;;;;;;17.94;100.00;101083.28;6254553;28;20041;-87
2022/05/17 08:10:37;;;;;;;9.25;3.75;;;;;;;18.19;100.00;101087.66;6242167;28;20399;-87
2022/05/17 08:13:39;;;;;;;13.93;3.85;;;;;;;18.45;100.00;101086.75;6243400;28;20041;-86
2022/05/17 08:17:02;;;;;;;8.45;3.42;;;;;;;18.60;100.00;101086.97;6249268;28;20119;-86
2022/05/17 08:20:09;;;;;;;4.65;3.28;;;;;;;18.85;100.00;101098.34;6244151;28;20755;-88
2022/05/17 08:23:12;;;;;;;6.15;3.40;;;;;;;19.02;100.00;101088.72;6236219;28;20045;-87
2022/05/17 08:29:34;;;;;;;6.88;3.03;;;;;;;19.27;100.00;101085.09;6242081;28;20649;-86
2022/05/17 08:36:10;;;;;;;7.20;2.08;;;;;;;19.56;100.00;101094.28;6245156;28;20489;-89
2022/05/17 08:39:11;;;;;;;6.60;2.30;;;;;;;19.55;93.83;101090.00;6250229;28;20168;-87
2022/05/17 08:42:28;;;;;;;;;;;;;;;19.57;93.90;101094.09;6249669;28;20411;-87
2022/05/17 08:45:43;;;;;;;6.78;2.00;;;;;;;19.55;95.90;101093.47;6242294;28;20384;-87
2022/05/17 08:49:00;;;;;;;5.90;2.22;;;;;;;19.65;97.23;101108.22;6231476;28;20052;-86
2022/05/17 08:52:09;;;;;;;5.22;1.80;;;;;;;19.69;91.96;101107.75;6250933;28;20060;-87
2022/05/17 08:55:31;;;;;;;5.32;2.30;;;;;;;19.68;89.16;101105.31;6245798;28;20624;-86
2022/05/17 08:58:33;;;;;;;5.45;1.95;;;;;;;19.70;90.51;101104.16;6247242;28;20464;-87
2022/05/17 09:01:45;;;;;;;6.13;2.38;;;;;;;19.70;92.46;101101.53;6247357;28;20355;-86
2022/05/17 09:05:01;;;;;;;6.20;1.75;;;;;;;19.64;91.89;101103.97;6231907;28;20119;-87
2022/05/17 09:08:42;;;;;;;5.82;1.88;;;;;;;19.59;91.69;101110.53;6245896;28;20045;-87
2022/05/17 09:11:57;;;;;;;3.45;1.83;;;;;;;19.64;88.67;101111.84;6248813;28;20060;-88
2022/05/17 09:15:01;;;;;;;5.10;1.90;;;;;;;19.52;92.42;101117.41;6252104;28;20041;-86
2022/05/17 09:18:09;;;;;;;6.15;2.47;;;;;;;19.37;91.95;101124.31;6246656;28;20044;-86
2022/05/17 09:21:39;;;;;;;7.97;2.22;;;;;;;19.45;95.02;101113.00;6250083;28;20088;-87
2022/05/17 09:24:44;;;;;;;5.85;2.13;;;;;;;19.59;96.45;101110.53;6250577;28;20056;-86
2022/05/17 09:27:49;;;;;;;6.78;2.40;;;;;;;19.62;95.14;101114.63;6256867;28;20049;-86
2022/05/17 09:31:25;;;;;;;7.03;1.95;;;;;;;19.65;90.97;101116.94;6241485;28;20036;-86
2022/05/17 09:34:39;;;;;;;4.82;1.80;;;;;;;19.61;91.62;101120.06;6157694;28;20058;-88
2022/05/17 09:37:46;;;;;;;7.28;2.20;;;;;;;19.88;92.29;101118.91;6144098;28;20039;-89
2022/05/17 09:40:51;;;;;;;6.18;2.10;;;;;;;19.98;92.94;101122.97;6157233;28;20043;-87
2022/05/17 09:44:15;;;;;;;5.57;1.95;;;;;;;20.03;90.65;101117.22;6156994;28;20556;-87
2022/05/17 09:47:31;;;;;;;5.07;2.30;;;;;;;20.05;93.71;101111.78;6158562;28;20054;-87
2022/05/17 09:54:08;;;;;;;7.28;2.03;;;;;;;20.28;87.71;101117.94;6157165;28;20129;-88
2022/05/17 09:57:22;;;;;;;3.78;1.63;;;;;;;20.27;87.14;101118.91;6152736;28;20157;-85
2022/05/17 10:00:28;;;;;;;6.35;1.55;;;;;;;20.19;79.99;101114.50;6151844;28;20674;-86
2022/05/17 10:03:36;;;;;;;5.72;1.88;;;;;;;20.29;79.68;101121.38;6155831;28;20059;-86
2022/05/17 10:06:41;;;;;;;2.95;1.67;;;;;;;20.38;82.33;101115.94;6160334;28;20118;-86
2022/05/17 10:09:43;;;;;;;2.30;1.48;;;;;;;20.34;73.09;101111.19;6191924;28;20045;-85
2022/05/17 10:12:56;;;;;;;5.18;1.73;;;;;;;20.40;79.04;101113.16;6242767;28;20037;-86
2022/05/17 10:16:22;;;;;;;5.03;1.92;;;;;;;20.58;74.88;101105.03;6235121;28;20045;-86
2022/05/17 10:19:51;;;;;;;4.53;1.60;;;;;;;20.74;70.26;101114.63;6236877;28;20045;-90
2022/05/17 10:23:06;;;;;;;2.78;1.65;;;;;;;20.87;70.44;101109.63;6239212;28;20183;-87
2022/05/17 10:26:20;;;;;;;4.47;1.85;;;;;;;20.89;64.92;101118.16;6249115;28;20518;-90
2022/05/17 10:29:38;;;;;;;6.47;2.38;;;;;;;20.86;69.50;101111.41;6246826;28;20076;-87
2022/05/17 10:33:00;;;;;;;4.50;1.90;;;;;;;20.86;69.56;101106.16;6243095;28;20605;-87
2022/05/17 10:36:08;;;;;;;5.78;1.92;;;;;;;20.85;72.92;101111.63;6242622;28;20136;-87
2022/05/17 10:39:17;;;;;;;4.00;1.80;;;;;;;20.98;71.19;101111.03;6242492;28;20229;-87
2022/05/17 10:42:21;;;;;;;6.57;2.28;;;;;;;21.08;72.94;101108.97;6244933;28;20292;-87
2022/05/17 10:45:32;;;;;;;6.70;2.13;;;;;;;21.30;74.41;101107.34;6249858;28;20061;-87
2022/05/17 10:48:58;;;;;;;3.70;2.22;;;;;;;21.34;69.61;101115.69;6249517;28;20033;-87
2022/05/17 10:52:19;;;;;;;3.80;2.10;;;;;;;21.37;68.47;101110.09;6245054;28;20099;-90
2022/05/17 10:56:03;;;;;;;5.13;1.98;;;;;;;21.47;66.18;101108.06;6250763;28;20418;-88
2022/05/17 10:59:26;;;;;;;6.35;1.90;;;;;;;21.57;66.91;101105.97;6260157;28;20045;-88
2022/05/17 11:03:04;;;;;;;7.50;2.30;;;;;;;21.77;64.84;101108.09;6244840;28;20487;-87
2022/05/17 11:06:14;;;;;;;3.88;1.85;;;;;;;22.02;61.57;101108.66;6269754;28;20059;-86
2022/05/17 11:09:48;;;;;;;4.03;1.60;;;;;;;21.94;62.28;101106.94;6228104;28;20049;-86
2022/05/17 11:12:56;;;;;;;3.30;1.60;;;;;;;21.85;60.08;101106.19;6246438;28;20044;-86
2022/05/17 11:16:12;;;;;;;3.30;2.03;;;;;;;21.93;59.04;101103.44;6257225;28;20396;-87
2022/05/17 11:19:27;;;;;;;3.42;1.80;;;;;;;21.93;59.32;101094.72;6256756;28;20044;-86
2022/05/17 11:22:52;;;;;;;4.63;1.83;;;;;;;21.98;60.22;101102.91;6243689;28;20049;-88
2022/05/17 11:26:22;;;;;;;5.53;1.90;;;;;;;22.11;60.38;101108.38;6252352;28;20060;-87
2022/05/17 11:30:01;;;;;;;6.57;2.20;;;;;;;22.19;60.29;101096.91;6249884;28;20171;-86
2022/05/17 11:33:23;;;;;;;3.58;1.63;;;;;;;22.34;60.65;101094.28;6247180;28;20427;-87
2022/05/17 11:36:31;;;;;;;4.25;1.60;;;;;;;22.48;58.22;101096.06;6237710;28;20037;-86
2022/05/17 11:39:37;;;;;;;5.32;1.55;;;;;;;22.55;56.87;101102.22;6257396;28;20057;-84
2022/05/17 11:46:33;;;;;;;3.70;1.38;;;;;;;22.48;57.28;101100.50;6262542;28;20041;-83
2022/05/17 11:49:41;;;;;;;3.92;1.20;;;;;;;22.56;54.21;101095.97;6262320;28;20397;-82
2022/05/17 11:53:03;;;;;;;5.57;1.45;;;;;;;22.68;55.61;101091.03;6260401;28;20045;-81
2022/05/17 11:56:24;;;;;;;3.92;1.25;;;;;;;22.88;55.57;101091.22;6261014;28;20041;-82
2022/05/17 11:59:28;;;;;;;6.78;1.55;;;;;;;23.09;57.68;101087.78;6256463;28;20049;-82
2022/05/17 12:02:51;;;;;;;3.25;1.83;;;;;;;23.21;54.90;101096.00;6260795;28;20037;-82
2022/05/17 12:05:57;;;;;;;3.55;1.38;;;;;;;23.29;53.23;101081.84;6268014;28;20053;-82
2022/05/17 12:08:59;;;;;;;4.38;1.63;;;;;;;23.55;57.16;101078.56;6263741;28;20084;-82
2022/05/17 12:12:46;;;;;;;6.88;2.10;;;;;;;23.66;53.57;101078.03;6262199;28;20033;-81
2022/05/17 12:15:52;;;;;;;2.85;1.65;;;;;;;23.95;54.64;101084.97;6255650;28;20049;-81
2022/05/17 12:19:14;;;;;;;4.32;1.58;;;;;;;24.17;51.07;101074.25;6266467;28;20146;-82
2022/05/17 12:22:44;;;;;;;3.15;1.60;;;;;;;24.33;51.54;101096.94;6261476;28;20049;-81
2022/05/17 12:26:13;;;;;;;2.40;1.35;;;;;;;24.31;50.80;101075.94;6255780;28;20045;-81
2022/05/17 12:32:39;;;;;;;7.10;2.00;;;;;;;24.67;51.37;101082.78;6260552;28;20620;-83
2022/05/17 12:35:41;;;;;;;6.00;1.50;;;;;;;24.82;50.36;101083.44;6253239;28;20515;-82
2022/05/17 12:45:48;;;;;;;5.80;1.55;;;;;;;24.97;50.41;101071.81;6265418;28;20041;-83
2022/05/17 12:48:51;;;;;;;6.68;1.60;;;;;;;25.21;48.51;101063.28;6271647;28;20056;-82
2022/05/17 12:51:58;;;;;;;4.20;1.25;;;;;;;25.36;46.50;101063.09;6268655;28;20045;-81
2022/05/17 12:55:07;;;;;;;4.05;1.17;;;;;;;25.44;47.73;101068.19;6271632;28;20041;-81
2022/05/17 12:58:14;;;;;;;3.03;1.33;;;;;;;25.38;46.02;101063.69;6262748;28;20041;-83
2022/05/17 13:01:33;;;;;;;4.05;1.48;;;;;;;25.44;46.42;101065.53;6267232;28;20056;-82
2022/05/17 13:04:38;;;;;;;3.90;1.50;;;;;;;25.60;47.71;101060.81;6260192;28;20383;-82
2022/05/17 13:07:40;;;;;;;4.15;1.50;;;;;;;25.86;44.94;101059.94;6251442;28;20115;-82
2022/05/17 13:10:56;;;;;;;3.05;1.42;;;;;;;26.09;43.04;101057.63;6241412;28;20045;-82
2022/05/17 13:14:10;;;;;;;4.10;1.60;;;;;;;25.98;44.23;101061.72;6246528;28;20501;-83
2022/05/17 13:17:18;;;;;;;4.22;1.55;;;;;;;26.29;42.65;101046.91;6232983;28;20446;-82
2022/05/17 13:20:29;;;;;;;3.00;1.13;;;;;;;26.53;42.97;101053.31;6250971;28;20120;-83
2022/05/17 13:23:31;;;;;;;2.60;1.30;;;;;;;26.97;43.05;101064.88;6243034;28;20401;-83
2022/05/17 13:26:44;;;;;;;3.85;1.60;;;;;;;27.24;42.65;101056.72;6252008;28;20266;-82
2022/05/17 13:29:52;;;;;;;4.32;1.75;;;;;;;27.17;42.00;101070.03;6242572;28;20041;-85
2022/05/17 13:32:55;;;;;;;3.65;1.60;;;;;;;26.89;41.26;101054.53;6231350;28;20041;-82
2022/05/17 13:36:28;;;;;;;2.75;1.40;;;;;;;26.66;44.06;101057.75;6243034;28;20406;-83
2022/05/17 13:39:31;;;;;;;4.40;2.20;;;;;;;26.57;42.19;101054.53;6231303;28;20037;-83
2022/05/17 13:42:49;;;;;;;3.67;1.60;;;;;;;26.58;42.55;101061.50;6246374;28;20055;-82
2022/05/17 13:46:12;;;;;;;3.63;1.42;;;;;;;26.72;41.37;101054.22;6241196;28;20049;-82
2022/05/17 13:49:37;;;;;;;5.57;1.63;;;;;;;26.27;41.36;101058.78;6245694;28;20045;-82
2022/05/17 13:52:42;;;;;;;4.50;1.70;;;;;;;26.24;43.37;101059.19;6246878;28;20052;-84
2022/05/17 13:55:44;;;;;;;5.30;1.65;;;;;;;26.43;44.76;101053.78;6245016;28;20357;-83
2022/05/17 13:58:46;;;;;;;3.55;1.55;;;;;;;26.56;40.71;101055.56;6226199;28;20045;-82
2022/05/17 14:01:55;;;;;;;3.75;1.92;;;;;;;26.80;40.97;101064.59;6248891;28;20048;-83
2022/05/17 14:05:17;;;;;;;3.92;1.60;;;;;;;27.19;42.59;101054.69;6249561;28;20120;-82
2022/05/17 14:11:55;;;;;;;2.85;1.33;;;;;;;26.30;43.78;101053.03;6244050;28;20094;-82
2022/05/17 14:14:59;;;;;;;4.43;1.77;;;;;;;26.65;41.46;101056.13;6248712;28;20037;-82
2022/05/17 14:18:02;;;;;;;5.30;2.20;;;;;;;27.01;43.57;101044.00;6246161;28;20037;-82
2022/05/17 14:21:08;;;;;;;2.90;1.58;;;;;;;27.16;41.31;101055.13;6255148;28;20049;-83
2022/05/17 14:24:15;;;;;;;5.30;1.73;;;;;;;26.79;41.01;101057.66;6253388;28;20050;-82
2022/05/17 14:27:18;;;;;;;3.97;1.55;;;;;;;26.47;42.34;101056.81;6251914;28;20045;-82
2022/05/17 14:30:19;;;;;;;5.07;1.92;;;;;;;26.21;45.02;101057.78;6243765;28;20050;-83
2022/05/17 14:33:22;;;;;;;5.18;1.60;;;;;;;26.46;43.86;101054.34;6266983;28;20044;-82
2022/05/17 14:36:27;;;;;;;4.07;1.60;;;;;;;26.73;43.46;101053.22;6269969;28;20047;-83
2022/05/17 14:39:32;;;;;;;5.38;1.60;;;;;;;26.97;41.58;101056.91;6249565;28;20749;-82
2022/05/17 14:42:35;;;;;;;4.38;1.85;;;;;;;27.18;41.16;101053.09;6259464;28;20049;-82
2022/05/17 14:45:55;;;;;;;3.87;1.60;;;;;;;27.33;42.85;101046.59;6260292;28;20534;-82
2022/05/17 14:49:06;;;;;;;6.07;1.83;;;;;;;27.16;41.31;101047.16;6260626;28;20059;-82
2022/05/17 14:52:08;;;;;;;5.82;1.90;;;;;;;26.80;42.44;101058.47;6263705;28;20039;-83
2022/05/17 14:55:13;;;;;;;3.97;1.52;;;;;;;27.17;43.02;101067.34;6260244;28;20049;-84